Terminal Aerodrome Forecast
Issued by NWS

Home | Current Version | Previous Version | Text Only | Print | Product List | Glossary On
Versions: 1 2 3 4 5 6 7 8 9 10 11 12 13 14 15 16 17 18 19 20 21 22 23 24 25 26 27 28 29 30 31 32 33 34 35
000
FTAK31 PANC 051153 AAA
TAFAGK
TAF AMD
PAGK 051153Z 0512/0612 15004KT 1SM BR SCT003 BKN015 OVC050
      TEMPO 0512/0516 VRB03KT 1/2SM -RA FG BKN003
     FM052100 VRB03KT P6SM VCSH BKN060=

USA.gov is the U.S. government's official web portal to all federal, state and local government web resources and services.